createdAt,value
2023-04-09T08:00:53.688Z,97305.88
2023-04-09T08:01:56.558Z,97303.25
2023-04-09T08:03:00.609Z,97302.88
2023-04-09T08:04:04.093Z,97304.31
2023-04-09T08:05:08.539Z,97300.41
2023-04-09T08:06:11.032Z,97302.03
2023-04-09T08:07:14.454Z,97298.75
2023-04-09T08:08:16.895Z,97302.44
2023-04-09T08:09:21.444Z,97304.94
2023-04-09T08:10:24.924Z,97289.59
2023-04-09T08:11:27.530Z,97300.03
2023-04-09T08:12:31.108Z,97296.38
2023-04-09T08:13:33.548Z,97300.94
2023-04-09T08:14:37.324Z,97299.91
2023-04-09T08:15:40.651Z,97300.16
2023-04-09T08:16:46.324Z,97300.38
2023-04-09T08:17:50.060Z,97303.75
2023-04-09T08:18:52.844Z,97312.78
2023-04-09T08:19:56.525Z,97309.78
2023-04-09T08:20:59.858Z,97305.13
2023-04-09T08:22:02.633Z,97304.78
2023-04-09T08:23:06.108Z,97306.50
2023-04-09T08:24:08.916Z,97313.34
2023-04-09T08:25:12.260Z,97305.25
2023-04-09T08:26:14.605Z,97306.97
2023-04-09T08:27:18.087Z,97310.56
2023-04-09T08:28:22.294Z,97313.91
2023-04-09T08:29:25.643Z,97306.25
2023-04-09T08:30:28.313Z,97315.41
2023-04-09T08:31:32.023Z,97317.13
2023-04-09T08:32:37.578Z,97312.34
2023-04-09T08:33:40.914Z,97316.19
2023-04-09T08:34:44.580Z,97311.41
2023-04-09T08:35:46.997Z,97307.00
2023-04-09T08:36:51.339Z,97316.94
2023-04-09T08:37:55.630Z,97317.06
2023-04-09T08:39:00.651Z,97312.06
2023-04-09T08:40:03.685Z,97323.06
2023-04-09T08:41:07.118Z,97311.91
2023-04-09T08:42:12.891Z,97313.06
2023-04-09T08:43:17.990Z,97315.47
2023-04-09T08:44:22.148Z,97317.66
2023-04-09T08:45:25.943Z,97312.91
2023-04-09T08:46:29.748Z,97313.22
2023-04-09T08:47:35.335Z,97319.38
2023-04-09T08:48:42.731Z,97321.81
2023-04-09T08:49:46.173Z,97332.03
2023-04-09T08:50:48.623Z,97322.97
2023-04-09T08:51:52.435Z,97322.97
2023-04-09T08:52:56.756Z,97320.84
2023-04-09T08:54:04.448Z,97330.25
2023-04-09T08:55:12.607Z,97331.06
2023-04-09T08:56:16.552Z,97325.72
2023-04-09T08:57:20.287Z,97325.72
2023-04-09T08:58:23.822Z,97333.25
2023-04-09T08:59:27.342Z,97324.41
2023-04-09T09:00:29.867Z,97330.38
2023-04-09T09:01:36.088Z,97328.47
2023-04-09T09:02:40.006Z,97322.56
2023-04-09T09:03:55.602Z,97327.44
2023-04-09T09:05:01.104Z,97325.78
2023-04-09T09:06:03.900Z,97330.09
2023-04-09T09:07:08.163Z,97329.88
2023-04-09T09:08:13.000Z,97327.19
2023-04-09T09:09:18.956Z,97328.03
2023-04-09T09:10:21.797Z,97331.25
2023-04-09T09:11:30.451Z,97326.72
2023-04-09T09:12:35.690Z,97322.97
2023-04-09T09:13:39.057Z,97321.13
2023-04-09T09:14:51.452Z,97328.91
2023-04-09T09:15:56.547Z,97326.25
2023-04-09T09:17:08.537Z,97320.56
2023-04-09T09:18:11.055Z,97324.28
2023-04-09T09:19:31.948Z,97322.66
2023-04-09T09:20:34.701Z,97327.19
2023-04-09T09:21:38.715Z,97326.88
2023-04-09T09:22:55.076Z,97329.53
2023-04-09T09:23:59.722Z,97331.06
2023-04-09T09:25:02.582Z,97330.03
2023-04-09T09:26:13.609Z,97330.84
2023-04-09T09:27:37.139Z,97333.75
2023-04-09T09:28:41.366Z,97327.84
2023-04-09T09:29:45.995Z,97322.50
2023-04-09T09:30:49.551Z,97328.63
2023-04-09T09:31:53.876Z,97323.28
2023-04-09T09:33:08.133Z,97321.41
2023-04-09T09:34:11.941Z,97327.84
2023-04-09T09:35:15.727Z,97324.34
2023-04-09T09:36:33.231Z,97317.16
2023-04-09T09:37:35.655Z,97325.38
2023-04-09T09:38:56.267Z,97322.50
2023-04-09T09:40:00.037Z,97322.72
2023-04-09T09:41:18.612Z,97323.53
2023-04-09T09:42:22.191Z,97320.84
2023-04-09T09:43:24.886Z,97321.69
2023-04-09T09:44:35.003Z,97314.47
2023-04-09T09:45:38.057Z,97324.09
2023-04-09T09:46:42.668Z,97318.75
2023-04-09T09:47:46.718Z,97322.00
2023-04-09T09:48:50.366Z,97316.66
2023-04-09T09:49:54.678Z,97322.81
2023-04-09T09:50:59.701Z,97314.53
2023-04-09T09:52:08.310Z,97316.19
2023-04-09T09:53:12.169Z,97315.09
2023-04-09T09:54:19.368Z,97319.19
2023-04-09T09:55:24.466Z,97316.25
2023-04-09T09:56:33.602Z,97315.22
2023-04-09T09:57:41.812Z,97307.53
2023-04-09T09:58:54.898Z,97310.19
2023-04-09T10:00:03.255Z,97307.28
2023-04-09T10:01:11.353Z,97309.97
2023-04-09T10:02:21.194Z,97310.56
2023-04-09T10:03:27.644Z,97308.09
2023-04-09T10:04:34.975Z,97301.47
2023-04-09T10:05:39.266Z,97302.06
2023-04-09T10:06:46.129Z,97295.66
2023-04-09T10:07:50.867Z,97295.66
2023-04-09T10:08:58.326Z,97291.91
2023-04-09T10:10:03.768Z,97295.16
2023-04-09T10:11:08.029Z,97295.16
2023-04-09T10:12:12.237Z,97293.06
2023-04-09T10:13:21.877Z,97293.88
2023-04-09T10:14:26.194Z,97296.78
2023-04-09T10:15:30.077Z,97301.06
2023-04-09T10:16:34.896Z,97306.66
2023-04-09T10:17:38.963Z,97300.03
2023-04-09T10:18:43.913Z,97310.72
2023-04-09T10:19:55.956Z,97300.03
2023-04-09T10:21:02.105Z,97305.38
2023-04-09T10:22:11.347Z,97301.63
2023-04-09T10:23:21.732Z,97304.91
2023-04-09T10:24:25.879Z,97306.03
2023-04-09T10:25:28.810Z,97299.63
2023-04-09T10:26:35.605Z,97300.97
2023-04-09T10:27:38.173Z,97295.19
2023-04-09T10:28:41.841Z,97296.53
2023-04-09T10:29:45.534Z,97302.44
2023-04-09T10:30:49.149Z,97291.53
2023-04-09T10:31:53.189Z,97291.84
2023-04-09T10:32:56.665Z,97294.53
2023-04-09T10:34:05.268Z,97292.16
2023-04-09T10:35:11.319Z,97299.13
2023-04-09T10:36:13.699Z,97291.09
2023-04-09T10:37:22.705Z,97287.13
2023-04-09T10:38:37.308Z,97286.06
2023-04-09T10:39:44.346Z,97289.56
2023-04-09T10:40:51.008Z,97288.50
2023-04-09T10:41:56.064Z,97289.31
2023-04-09T10:42:59.764Z,97284.53
2023-04-09T10:44:07.893Z,97281.84
2023-04-09T10:45:12.572Z,97288.03
2023-04-09T10:46:29.091Z,97283.47
2023-04-09T10:47:37.375Z,97284.03
2023-04-09T10:48:41.099Z,97292.63
2023-04-09T10:49:45.045Z,97283.00
2023-04-09T10:50:51.456Z,97274.69
2023-04-09T10:52:02.402Z,97277.38
2023-04-09T10:53:07.432Z,97274.69
2023-04-09T10:54:46.489Z,97273.38
2023-04-09T10:55:51.242Z,97276.31
2023-04-09T10:57:13.923Z,97268.84
2023-04-09T10:58:17.345Z,97275.50
2023-04-09T10:59:19.752Z,97270.72
2023-04-09T11:00:23.290Z,97277.97
2023-04-09T11:01:28.417Z,97272.34
2023-04-09T11:02:49.234Z,97271.78
2023-04-09T11:04:10.810Z,97269.13
2023-04-09T11:05:20.361Z,97267.50
2023-04-09T11:06:24.640Z,97265.63
2023-04-09T11:07:30.673Z,97266.44
2023-04-09T11:08:36.355Z,97261.63
2023-04-09T11:09:38.697Z,97258.16
2023-04-09T11:10:44.739Z,97261.41
2023-04-09T11:11:54.373Z,97262.22
2023-04-09T11:12:56.712Z,97262.22
2023-04-09T11:14:01.666Z,97261.97
2023-04-09T11:15:05.065Z,97260.09
2023-04-09T11:16:08.666Z,97259.84
2023-04-09T11:17:11.133Z,97263.31
2023-04-09T11:18:21.938Z,97260.41
2023-04-09T11:19:24.524Z,97255.88
2023-04-09T11:20:28.376Z,97252.13
2023-04-09T11:21:31.893Z,97263.97
2023-04-09T11:22:34.657Z,97258.59
2023-04-09T11:23:39.834Z,97260.25
2023-04-09T11:24:42.815Z,97257.56
2023-04-09T11:25:51.172Z,97257.31
2023-04-09T11:26:56.053Z,97256.25
2023-04-09T11:27:59.857Z,97265.09
2023-04-09T11:29:06.562Z,97265.66
2023-04-09T11:30:10.761Z,97265.66
2023-04-09T11:31:14.684Z,97267.28
2023-04-09T11:32:17.269Z,97268.09
2023-04-09T11:33:20.984Z,97265.41
2023-04-09T11:34:28.060Z,97275.63
2023-04-09T11:35:31.506Z,97268.63
2023-04-09T11:36:35.952Z,97269.47
2023-04-09T11:37:39.819Z,97259.56
2023-04-09T11:38:44.542Z,97266.53
2023-04-09T11:39:47.134Z,97264.41
2023-04-09T11:40:51.553Z,97275.13
2023-04-09T11:41:54.266Z,97267.91
2023-04-09T11:42:58.041Z,97268.72
2023-04-09T11:44:03.478Z,97276.50
2023-04-09T11:45:07.905Z,97273.00
2023-04-09T11:46:11.664Z,97268.47
2023-04-09T11:47:14.956Z,97272.75
2023-04-09T11:48:19.474Z,97275.44
2023-04-09T11:49:22.878Z,97265.56
2023-04-09T11:50:26.850Z,97271.72
2023-04-09T11:51:31.728Z,97264.22
2023-04-09T11:52:36.010Z,97254.56
2023-04-09T11:53:39.408Z,97266.38
2023-04-09T11:54:43.474Z,97269.28
2023-04-09T11:55:49.336Z,97270.59
2023-04-09T11:56:56.014Z,97268.16
2023-04-09T11:58:02.109Z,97263.59
2023-04-09T11:59:04.643Z,97266.53
2023-04-09T12:00:11.169Z,97267.34
2023-04-09T12:01:15.655Z,97259.31
2023-04-09T12:02:19.096Z,97264.66
2023-04-09T12:03:30.112Z,97261.97
2023-04-09T12:04:33.177Z,97261.97
2023-04-09T12:05:39.195Z,97258.50
2023-04-09T12:06:43.697Z,97256.63
2023-04-09T12:07:55.686Z,97260.38
2023-04-09T12:09:00.639Z,97260.38
2023-04-09T12:10:10.147Z,97256.06
2023-04-09T12:11:16.526Z,97262.47
2023-04-09T12:12:19.582Z,97264.09
2023-04-09T12:13:23.368Z,97258.75
2023-04-09T12:14:25.822Z,97250.72
2023-04-09T12:15:33.635Z,97256.88
2023-04-09T12:16:37.509Z,97259.56
2023-04-09T12:17:40.078Z,97257.13
2023-04-09T12:18:43.559Z,97259.78
2023-04-09T12:19:49.442Z,97255.03
2023-04-09T12:20:52.802Z,97256.88
2023-04-09T12:21:58.874Z,97259.56
2023-04-09T12:23:03.979Z,97255.25
2023-04-09T12:24:07.376Z,97253.41
2023-04-09T12:25:11.508Z,97260.38
2023-04-09T12:26:14.889Z,97256.63
2023-04-09T12:27:17.286Z,97256.63
2023-04-09T12:28:20.878Z,97254.22
2023-04-09T12:29:23.340Z,97256.63
2023-04-09T12:30:27.307Z,97255.03
2023-04-09T12:31:29.759Z,97259.56
2023-04-09T12:32:33.202Z,97256.63
2023-04-09T12:33:38.935Z,97256.63
2023-04-09T12:34:41.961Z,97258.50
2023-04-09T12:35:45.364Z,97258.50
2023-04-09T12:36:48.540Z,97256.88
2023-04-09T12:37:52.906Z,97256.63
2023-04-09T12:38:55.858Z,97260.38
2023-04-09T12:39:59.163Z,97258.50
2023-04-09T12:41:03.815Z,97260.38
2023-04-09T12:42:06.749Z,97260.38
2023-04-09T12:43:10.569Z,97269.22
2023-04-09T12:44:13.014Z,97265.72
2023-04-09T12:45:17.997Z,97265.72
2023-04-09T12:46:21.445Z,97269.47
2023-04-09T12:47:24.970Z,97268.41
2023-04-09T12:48:27.741Z,97265.72
2023-04-09T12:49:31.326Z,97267.59
2023-04-09T12:50:34.777Z,97271.09
2023-04-09T12:51:37.586Z,97274.81
2023-04-09T12:52:41.167Z,97281.22
2023-04-09T12:53:43.905Z,97281.22
2023-04-09T12:54:48.802Z,97278.53
2023-04-09T12:55:52.457Z,97279.34
2023-04-09T12:56:56.501Z,97283.88
2023-04-09T12:58:00.127Z,97277.97
2023-04-09T12:59:02.517Z,97286.00
2023-04-09T13:00:07.852Z,97296.72
2023-04-09T13:01:13.249Z,97286.00
2023-04-09T13:02:16.027Z,97296.72
2023-04-09T13:03:19.844Z,97301.25
2023-04-09T13:04:22.435Z,97302.56
2023-04-09T13:05:26.408Z,97313.00
2023-04-09T13:06:28.881Z,97310.59
2023-04-09T13:07:32.358Z,97313.84
2023-04-09T13:08:34.865Z,97305.81
2023-04-09T13:09:38.433Z,97302.56
2023-04-09T13:10:41.204Z,97304.94
2023-04-09T13:11:44.621Z,97301.44
2023-04-09T13:12:49.186Z,97291.22
2023-04-09T13:13:52.444Z,97290.41
2023-04-09T13:14:56.676Z,97292.53
2023-04-09T13:15:59.058Z,97279.38
2023-04-09T13:17:02.759Z,97282.31
2023-04-09T13:18:06.585Z,97286.03
2023-04-09T13:19:10.095Z,97283.63
2023-04-09T13:20:13.692Z,97276.66
2023-04-09T13:21:18.893Z,97286.78
2023-04-09T13:22:22.943Z,97289.44
2023-04-09T13:23:26.201Z,97280.88
2023-04-09T13:24:29.597Z,97279.25
2023-04-09T13:25:32.947Z,97279.25
2023-04-09T13:26:35.848Z,97283.00
2023-04-09T13:27:39.589Z,97278.44
2023-04-09T13:28:43.650Z,97276.81
2023-04-09T13:29:46.962Z,97285.09
2023-04-09T13:30:49.459Z,97280.81
2023-04-09T13:31:53.256Z,97285.34
2023-04-09T13:32:55.985Z,97281.84
2023-04-09T13:34:00.168Z,97280.22
2023-04-09T13:35:03.583Z,97280.00
2023-04-09T13:36:06.906Z,97284.53
2023-04-09T13:37:10.497Z,97281.84
2023-04-09T13:38:12.876Z,97283.97
2023-04-09T13:39:16.280Z,97284.75
2023-04-09T13:40:19.787Z,97280.47
2023-04-09T13:41:28.353Z,97289.31
2023-04-09T13:42:31.669Z,97286.06
2023-04-09T13:43:35.056Z,97278.03
2023-04-09T13:44:40.706Z,97284.44
2023-04-09T13:45:44.220Z,97279.09
2023-04-09T13:46:46.689Z,97279.09
2023-04-09T13:47:50.200Z,97269.69
2023-04-09T13:48:53.015Z,97270.50
2023-04-09T13:49:56.515Z,97273.19
2023-04-09T13:50:59.031Z,97275.03
2023-04-09T13:52:04.545Z,97275.03
2023-04-09T13:53:07.867Z,97279.56
2023-04-09T13:54:11.340Z,97279.56
2023-04-09T13:55:15.119Z,97277.16
2023-04-09T13:56:17.599Z,97277.16
2023-04-09T13:57:21.419Z,97277.16
2023-04-09T13:58:27.324Z,97281.69
2023-04-09T13:59:31.136Z,97274.72
2023-04-09T14:00:36.169Z,97276.34
2023-04-09T14:01:41.044Z,97265.09
2023-04-09T14:02:44.553Z,97276.56
2023-04-09T14:03:48.084Z,97278.47
2023-04-09T14:04:50.910Z,97271.50
2023-04-09T14:05:54.292Z,97275.78
2023-04-09T14:06:57.420Z,97276.03
2023-04-09T14:08:01.851Z,97283.00
2023-04-09T14:09:04.392Z,97284.88
2023-04-09T14:10:09.304Z,97274.16
2023-04-09T14:11:15.069Z,97276.03
2023-04-09T14:12:18.471Z,97276.84
2023-04-09T14:13:21.428Z,97276.03
2023-04-09T14:14:24.924Z,97279.75
2023-04-09T14:15:27.908Z,97268.25
2023-04-09T14:16:33.075Z,97269.31
2023-04-09T14:17:35.683Z,97270.13
2023-04-09T14:18:40.067Z,97269.31
2023-04-09T14:19:43.446Z,97273.03
2023-04-09T14:20:47.281Z,97263.13
2023-04-09T14:21:49.700Z,97265.00
2023-04-09T14:22:53.059Z,97265.00
2023-04-09T14:23:55.723Z,97264.19
2023-04-09T14:24:59.547Z,97268.72
2023-04-09T14:26:03.121Z,97266.03
2023-04-09T14:27:06.874Z,97267.13
2023-04-09T14:28:09.284Z,97266.31
2023-04-09T14:29:12.731Z,97271.66
2023-04-09T14:30:15.479Z,97264.44
2023-04-09T14:31:21.639Z,97265.50
2023-04-09T14:32:25.508Z,97258.50
2023-04-09T14:33:29.041Z,97265.50
2023-04-09T14:34:32.547Z,97264.69
2023-04-09T14:35:35.158Z,97262.25
2023-04-09T14:36:38.815Z,97269.47
2023-04-09T14:37:41.597Z,97268.44
2023-04-09T14:38:45.963Z,97263.88
2023-04-09T14:39:48.336Z,97262.81
2023-04-09T14:40:51.906Z,97255.34
2023-04-09T14:41:57.136Z,97265.00
2023-04-09T14:42:59.813Z,97261.50
2023-04-09T14:44:03.248Z,97266.63
2023-04-09T14:45:06.142Z,97262.09
2023-04-09T14:46:11.989Z,97261.03
2023-04-09T14:47:14.499Z,97253.81
2023-04-09T14:48:20.178Z,97252.75
2023-04-09T14:49:27.360Z,97257.06
2023-04-09T14:50:32.469Z,97256.25
2023-04-09T14:51:37.594Z,97249.03
2023-04-09T14:52:40.198Z,97251.72
2023-04-09T14:53:44.034Z,97247.16
2023-04-09T14:54:46.690Z,97252.50
2023-04-09T14:55:50.087Z,97241.56
2023-04-09T14:56:53.468Z,97246.38
2023-04-09T14:57:56.023Z,97251.72
2023-04-09T14:58:59.777Z,97251.47
2023-04-09T15:00:02.597Z,97252.50
2023-04-09T15:01:08.416Z,97248.78
2023-04-09T15:02:12.673Z,97254.13
2023-04-09T15:03:16.345Z,97247.97
2023-04-09T15:04:20.807Z,97253.31
2023-04-09T15:05:24.277Z,97247.16
2023-04-09T15:06:28.057Z,97249.81
2023-04-09T15:07:30.700Z,97241.03
2023-04-09T15:08:34.194Z,97247.97
2023-04-09T15:09:37.612Z,97250.66
2023-04-09T15:10:41.155Z,97247.97
2023-04-09T15:11:43.578Z,97244.25
2023-04-09T15:12:46.967Z,97252.28
2023-04-09T15:13:49.355Z,97247.97
2023-04-09T15:14:53.108Z,97239.13
2023-04-09T15:15:55.749Z,97248.78
2023-04-09T15:16:59.221Z,97245.06
2023-04-09T15:18:06.040Z,97241.81
2023-04-09T15:19:09.647Z,97246.38
2023-04-09T15:20:16.111Z,97237.28
2023-04-09T15:21:19.865Z,97246.38
2023-04-09T15:22:22.336Z,97239.38
2023-04-09T15:23:25.849Z,97246.38
2023-04-09T15:24:28.280Z,97244.97
2023-04-09T15:25:33.155Z,97240.69
2023-04-09T15:26:35.679Z,97238.25
2023-04-09T15:27:39.164Z,97235.03
2023-04-09T15:28:41.922Z,97229.69
2023-04-09T15:29:45.738Z,97236.06
2023-04-09T15:30:48.079Z,97236.06
2023-04-09T15:31:54.270Z,97232.84
2023-04-09T15:32:56.896Z,97233.88
2023-04-09T15:34:00.680Z,97229.59
2023-04-09T15:35:10.439Z,97222.38
2023-04-09T15:36:14.252Z,97236.00
2023-04-09T15:37:18.323Z,97229.03
2023-04-09T15:38:31.085Z,97233.56
2023-04-09T15:39:35.230Z,97230.34
2023-04-09T15:40:38.661Z,97230.91
2023-04-09T15:41:41.034Z,97228.22
2023-04-09T15:42:44.416Z,97226.34
2023-04-09T15:43:47.728Z,97220.75
2023-04-09T15:44:57.440Z,97232.25
2023-04-09T15:46:12.163Z,97237.59
2023-04-09T15:47:15.799Z,97230.66
2023-04-09T15:48:22.317Z,97229.03
2023-04-09T15:49:26.029Z,97229.03
2023-04-09T15:50:30.209Z,97231.72
2023-04-09T15:51:34.697Z,97230.66
2023-04-09T15:52:41.862Z,97230.66
2023-04-09T15:53:45.646Z,97240.53
2023-04-09T15:54:49.021Z,97239.72
2023-04-09T15:55:51.803Z,97246.72
2023-04-09T15:56:55.223Z,97251.25
2023-04-09T15:57:57.667Z,97245.09
2023-04-09T15:59:02.224Z,97249.63
2023-04-09T16:00:07.868Z,97240.78
2023-04-09T16:01:13.370Z,97238.09
2023-04-09T16:02:16.866Z,97236.50
2023-04-09T16:03:19.620Z,97241.03
2023-04-09T16:04:23.226Z,97245.56
2023-04-09T16:05:25.795Z,97242.31
2023-04-09T16:06:29.667Z,97245.00
2023-04-09T16:07:33.398Z,97242.31
2023-04-09T16:08:37.402Z,97235.38
2023-04-09T16:09:46.224Z,97248.75
2023-04-09T16:10:48.656Z,97243.38
2023-04-09T16:11:52.198Z,97241.53
2023-04-09T16:13:00.119Z,97246.88
2023-04-09T16:14:04.007Z,97241.53
2023-04-09T16:15:08.601Z,97246.88
2023-04-09T16:16:12.272Z,97236.19
2023-04-09T16:17:15.907Z,97245.81
2023-04-09T16:18:19.906Z,97249.28
2023-04-09T16:19:24.646Z,97249.28
2023-04-09T16:20:27.128Z,97253.00
2023-04-09T16:21:30.502Z,97253.00
2023-04-09T16:22:35.447Z,97253.00
2023-04-09T16:23:38.905Z,97253.81
2023-04-09T16:24:42.249Z,97251.97
2023-04-09T16:25:44.768Z,97253.00
2023-04-09T16:26:48.212Z,97252.22
2023-04-09T16:27:50.805Z,97251.16
2023-04-09T16:28:54.367Z,97255.69
2023-04-09T16:29:57.135Z,97253.00
2023-04-09T16:31:01.076Z,97247.66
2023-04-09T16:32:04.895Z,97254.09
2023-04-09T16:33:09.391Z,97255.69
2023-04-09T16:34:12.768Z,97254.09
2023-04-09T16:35:15.151Z,97257.00
2023-04-09T16:36:18.591Z,97254.31
2023-04-09T16:37:21.018Z,97257.00
2023-04-09T16:38:27.983Z,97257.00
2023-04-09T16:39:30.540Z,97254.31
2023-04-09T16:40:34.501Z,97255.13
2023-04-09T16:41:38.560Z,97258.84
2023-04-09T16:42:41.054Z,97257.25
2023-04-09T16:43:46.558Z,97258.84
2023-04-09T16:44:49.882Z,97258.84
2023-04-09T16:45:53.685Z,97259.91
2023-04-09T16:46:57.760Z,97260.97
2023-04-09T16:48:00.659Z,97253.16
2023-04-09T16:49:04.370Z,97259.34
2023-04-09T16:50:10.623Z,97265.28
2023-04-09T16:51:14.417Z,97262.00
2023-04-09T16:52:18.040Z,97263.88
2023-04-09T16:53:20.865Z,97259.34
2023-04-09T16:54:25.709Z,97260.97
2023-04-09T16:55:28.312Z,97262.00
2023-04-09T16:56:31.715Z,97252.38
2023-04-09T16:57:34.496Z,97261.47
2023-04-09T16:58:38.290Z,97261.47
2023-04-09T16:59:42.529Z,97259.59
2023-04-09T17:00:47.743Z,97267.63
2023-04-09T17:01:52.852Z,97262.28
2023-04-09T17:02:57.936Z,97264.13
2023-04-09T17:04:03.178Z,97259.81
2023-04-09T17:05:06.570Z,97266.81
2023-04-09T17:06:09.982Z,97259.81
2023-04-09T17:07:13.140Z,97263.31
2023-04-09T17:08:17.135Z,97266.00
2023-04-09T17:09:20.003Z,97260.09
2023-04-09T17:10:24.776Z,97262.75
2023-04-09T17:11:27.235Z,97264.34
2023-04-09T17:12:32.911Z,97268.09
2023-04-09T17:13:36.257Z,97265.44
2023-04-09T17:14:42.024Z,97267.28
2023-04-09T17:15:46.098Z,97264.63
2023-04-09T17:16:49.060Z,97266.47
2023-04-09T17:17:53.890Z,97269.97
2023-04-09T17:18:57.409Z,97261.13
2023-04-09T17:20:01.734Z,97265.66
2023-04-09T17:21:05.779Z,97274.50
2023-04-09T17:22:09.399Z,97269.38
2023-04-09T17:23:12.810Z,97267.78
2023-04-09T17:24:15.756Z,97269.38
2023-04-09T17:25:20.524Z,97273.13
2023-04-09T17:26:24.905Z,97268.59
2023-04-09T17:27:28.822Z,97267.19
2023-04-09T17:28:32.328Z,97267.41
2023-04-09T17:29:35.486Z,97277.28
2023-04-09T17:30:39.151Z,97273.81
2023-04-09T17:31:41.769Z,97275.94
2023-04-09T17:32:45.143Z,97273.25
2023-04-09T17:33:48.150Z,97274.28
2023-04-09T17:34:52.852Z,97270.81
2023-04-09T17:35:57.692Z,97270.81
2023-04-09T17:37:00.437Z,97275.34
2023-04-09T17:38:03.946Z,97271.06
2023-04-09T17:39:06.618Z,97272.66
2023-04-09T17:40:12.909Z,97275.34
2023-04-09T17:41:15.929Z,97280.94
2023-04-09T17:42:22.159Z,97279.91
2023-04-09T17:43:24.930Z,97278.28
2023-04-09T17:44:28.406Z,97286.28
2023-04-09T17:45:31.747Z,97279.31
2023-04-09T17:46:34.502Z,97283.63
2023-04-09T17:47:39.225Z,97282.56
2023-04-09T17:48:42.766Z,97281.97
2023-04-09T17:49:46.045Z,97278.50
2023-04-09T17:50:50.228Z,97283.63
2023-04-09T17:51:53.654Z,97283.63
2023-04-09T17:52:57.390Z,97281.16
2023-04-09T17:53:59.785Z,97291.06
2023-04-09T17:55:03.918Z,97290.00
2023-04-09T17:56:07.078Z,97291.06
2023-04-09T17:57:17.409Z,97299.06
2023-04-09T17:58:21.494Z,97296.41
2023-04-09T17:59:25.907Z,97300.13
2023-04-09T18:00:28.500Z,97299.31
2023-04-09T18:01:32.636Z,97295.84
2023-04-09T18:02:36.109Z,97303.84
2023-04-09T18:03:40.301Z,97300.38
2023-04-09T18:04:44.136Z,97305.72
2023-04-09T18:05:47.509Z,97306.53
2023-04-09T18:06:50.924Z,97309.19
2023-04-09T18:07:56.442Z,97309.19
2023-04-09T18:08:59.367Z,97303.28
2023-04-09T18:10:03.516Z,97310.25
2023-04-09T18:11:12.158Z,97304.34
2023-04-09T18:12:17.575Z,97313.19
2023-04-09T18:13:21.321Z,97315.84
2023-04-09T18:14:25.696Z,97314.22
2023-04-09T18:15:28.615Z,97322.50
2023-04-09T18:16:32.202Z,97317.94
2023-04-09T18:17:34.684Z,97316.06
2023-04-09T18:18:38.035Z,97322.22
2023-04-09T18:19:40.732Z,97325.72
2023-04-09T18:20:44.059Z,97327.84
2023-04-09T18:21:47.469Z,97322.50
2023-04-09T18:22:50.653Z,97324.09
2023-04-09T18:23:53.957Z,97331.28
2023-04-09T18:24:56.752Z,97322.50
2023-04-09T18:26:00.066Z,97331.06
2023-04-09T18:27:03.022Z,97336.41
2023-04-09T18:28:07.596Z,97340.13
2023-04-09T18:29:13.217Z,97333.19
2023-04-09T18:30:16.569Z,97340.13
2023-04-09T18:31:20.264Z,97343.88
2023-04-09T18:32:23.772Z,97337.72
2023-04-09T18:33:27.627Z,97348.41
2023-04-09T18:34:36.875Z,97344.91
2023-04-09T18:35:39.361Z,97352.94
2023-04-09T18:36:42.936Z,97352.13
2023-04-09T18:37:45.847Z,97353.97
2023-04-09T18:38:49.453Z,97351.31
2023-04-09T18:39:53.401Z,97356.66
2023-04-09T18:40:56.672Z,97365.72
2023-04-09T18:42:00.164Z,97365.72
2023-04-09T18:43:03.600Z,97356.09
2023-04-09T18:44:07.616Z,97364.91
2023-04-09T18:45:13.340Z,97363.84
2023-04-09T18:46:16.559Z,97369.44
2023-04-09T18:47:20.055Z,97367.81
2023-04-09T18:48:23.671Z,97372.13
2023-04-09T18:49:27.013Z,97375.84
2023-04-09T18:50:30.827Z,97375.84
2023-04-09T18:51:33.850Z,97369.94
2023-04-09T18:52:38.572Z,97376.91
2023-04-09T18:53:41.661Z,97384.94
2023-04-09T18:54:45.042Z,97385.72
2023-04-09T18:55:48.453Z,97386.78
2023-04-09T18:56:50.941Z,97385.97
2023-04-09T18:58:15.123Z,97388.03
2023-04-09T18:59:18.613Z,97382.94
2023-04-09T19:00:22.320Z,97387.25
2023-04-09T19:01:27.920Z,97384.81
2023-04-09T19:02:30.558Z,97384.00
2023-04-09T19:03:43.606Z,97383.19
2023-04-09T19:04:47.973Z,97388.53
2023-04-09T19:05:51.435Z,97387.47
2023-04-09T19:06:55.013Z,97393.88
2023-04-09T19:07:59.816Z,97385.84
2023-04-09T19:09:02.636Z,97392.00
2023-04-09T19:10:06.681Z,97389.59
2023-04-09T19:11:09.370Z,97394.69
2023-04-09T19:12:12.706Z,97398.44
2023-04-09T19:13:15.073Z,97393.88
2023-04-09T19:14:18.778Z,97393.88
2023-04-09T19:15:26.207Z,97392.25
2023-04-09T19:16:29.829Z,97392.25
2023-04-09T19:17:34.972Z,97393.09
2023-04-09T19:18:43.630Z,97393.09
2023-04-09T19:19:51.380Z,97392.25
2023-04-09T19:20:58.232Z,97398.66
2023-04-09T19:22:02.386Z,97395.97
2023-04-09T19:23:05.060Z,97390.63
2023-04-09T19:24:08.702Z,97401.31
2023-04-09T19:25:11.482Z,97390.63
2023-04-09T19:26:14.909Z,97393.31
2023-04-09T19:27:18.777Z,97395.97
2023-04-09T19:28:21.523Z,97392.25
2023-04-09T19:29:25.246Z,97385.28
2023-04-09T19:30:30.089Z,97387.16
2023-04-09T19:31:32.716Z,97392.50
2023-04-09T19:32:36.306Z,97399.69
2023-04-09T19:33:39.759Z,97394.34
2023-04-09T19:34:48.228Z,97399.69
2023-04-09T19:35:52.868Z,97396.19
2023-04-09T19:36:56.807Z,97397.84
2023-04-09T19:37:59.466Z,97394.34
2023-04-09T19:39:03.402Z,97403.44
2023-04-09T19:40:08.170Z,97397.28
2023-04-09T19:41:11.880Z,97411.44
2023-04-09T19:42:15.596Z,97410.63
2023-04-09T19:43:18.061Z,97410.84
2023-04-09T19:44:21.786Z,97409.81
2023-04-09T19:45:26.049Z,97408.19
2023-04-09T19:46:29.762Z,97415.38
2023-04-09T19:47:34.826Z,97403.91
2023-04-09T19:48:37.906Z,97416.44
2023-04-09T19:49:41.778Z,97408.44
2023-04-09T19:50:45.421Z,97419.94
2023-04-09T19:51:50.224Z,97408.44
2023-04-09T19:52:53.278Z,97412.97
2023-04-09T19:53:57.389Z,97412.97
2023-04-09T19:54:59.858Z,97405.97
2023-04-09T19:56:03.772Z,97408.66
2023-04-09T19:57:07.050Z,97412.38
2023-04-09T19:58:10.424Z,97413.19
2023-04-09T19:59:13.043Z,97405.97
2023-04-09T20:00:16.651Z,97413.44
2023-04-09T20:01:26.301Z,97425.72
2023-04-09T20:02:31.845Z,97418.78
2023-04-09T20:03:35.592Z,97418.78
2023-04-09T20:04:38.175Z,97417.16
2023-04-09T20:05:41.590Z,97424.34
2023-04-09T20:06:45.759Z,97422.50
2023-04-09T20:07:49.326Z,97416.34
2023-04-09T20:08:53.395Z,97424.34
2023-04-09T20:09:55.969Z,97417.16
2023-04-09T20:10:59.280Z,97429.47
2023-04-09T20:12:09.111Z,97431.53
2023-04-09T20:13:12.548Z,97428.88
2023-04-09T20:14:15.918Z,97422.75
2023-04-09T20:15:20.646Z,97420.06
2023-04-09T20:16:24.358Z,97425.41
2023-04-09T20:17:27.230Z,97421.94
2023-04-09T20:18:32.512Z,97425.63
2023-04-09T20:19:35.275Z,97425.63
2023-04-09T20:20:39.007Z,97426.69
2023-04-09T20:21:43.569Z,97429.34
2023-04-09T20:22:55.497Z,97432.84
2023-04-09T20:24:00.692Z,97435.75
2023-04-09T20:25:03.089Z,97432.03
2023-04-09T20:26:09.820Z,97435.75
2023-04-09T20:27:13.522Z,97434.13
2023-04-09T20:28:16.959Z,97425.06
2023-04-09T20:29:19.410Z,97430.41
2023-04-09T20:30:24.213Z,97426.09
2023-04-09T20:31:28.678Z,97426.94
2023-04-09T20:32:31.250Z,97434.94
2023-04-09T20:33:37.804Z,97435.75
2023-04-09T20:34:43.979Z,97433.31
2023-04-09T20:35:48.274Z,97425.53
2023-04-09T20:36:51.053Z,97427.97
2023-04-09T20:37:55.287Z,97430.63
2023-04-09T20:38:58.964Z,97430.63